Weather observations for the past three days for
Mineral Wells, Mineral Wells Airport
Imperial (Metric)
Date Time (cdt) Wind (mph) Vis. (mi.) Weather Sky Cond. Temperature (ºF) Relative Humidity Wind Chill (°F) Heat Index (°F) Pressure Precipitation (in)
Air Dwpt 6 hour altimeter (in) sea level (mb) 1 hr 3 hr 6 hr
Max. Min.
04 09:53 S 13 10.00 Mostly Cloudy BKN110 84 68 59% 87 29.95 1012.7
04 08:53 SE 10 10.00 A Few Clouds FEW095 79 64.9 62% 81 29.95 1012.8
04 07:53 SE 8 10.00 Fair CLR 75.9 66 72% 77 29.94 1012.2
04 06:53 SE 9 10.00 Overcast OVC100 77 66.9 79 77 71% 79 29.91 1011.3
04 05:53 SE 9 10.00 A Few Clouds FEW120 78.1 72 82% 80 29.9 1011.0
04 04:53 S 9 10.00 Fair CLR 78.1 72 82% 80 29.9 1010.8
04 03:53 SE 9 10.00 Mostly Cloudy BKN090 78.1 73 85% 81 29.9 1010.6
04 02:53 SE 10 10.00 Fair CLR 77 72 85% 78 29.9 1010.7
04 01:53 SE 10 10.00 Fair CLR 78.1 72 82% 80 29.9 1011.0
04 00:53 SE 10 10.00 Fair CLR 79 72 93 79 79% 82 29.9 1011.1
03 23:53 SE 12 10.00 Fair CLR 80.1 71.1 74% 84 29.9 1010.9
03 22:53 SE 16 10.00 Fair CLR 81 70 69% 84 29.89 1010.7
03 21:53 SE 17 10.00 Fair CLR 82.9 69.1 63% 87 29.88 1010.2
03 20:53 SE 17 G 28 10.00 Fair CLR 86 70 59% 91 29.85 1009.2
03 19:53 SE 15 G 26 10.00 Partly Cloudy SCT080 89.1 72 57% 96 29.83 1008.7
03 18:53 SE 18 G 25 10.00 Fair CLR 93 73 99 91.9 52% 102 29.82 1008.2
03 17:53 SE 14 G 23 10.00 Fair CLR 96.1 73 48% 106 29.8 1007.6
03 16:53 E 12 G 23 10.00 Fair CLR 97 73 46% 107 29.81 1007.7
03 15:53 SE 10 10.00 Fair CLR 97 72 45% 106 29.82 1008.3
03 14:53 E 12 G 18 10.00 Fair CLR 97 72 45% 106 29.85 1009.1
03 13:53 E 15 G 21 10.00 Fair CLR 93.9 72 49% 102 29.88 1010.3
03 12:53 S 10 10.00 Fair CLR 91.9 72 91.9 73 52% 100 29.91 1011.1
03 11:53 SE 10 10.00 Fair CLR 88 72 59% 95 29.92 1011.6
03 10:53 SE 10 10.00 Fair CLR 86 72 63% 92 29.92 1011.6
03 09:53 SE 10 10.00 Fair CLR 84.9 71.1 63% 90 29.91 1011.3
03 08:53 SE 13 10.00 Fair CLR 80.1 71.1 74% 84 29.92 1011.7
03 07:53 SE 8 10.00 Fair CLR 75 70 84% 75 29.92 1011.6
03 06:53 SE 6 10.00 Fair CLR 73 69.1 81 73 87% 29.9 1011.1
03 05:53 SE 5 10.00 Fair CLR 73.9 69.1 85% 29.89 1010.7
03 04:53 E 3 10.00 Fair CLR 75 69.1 82% 75 29.89 1010.4
03 03:53 SE 3 10.00 Fair CLR 75.9 69.1 79% 77 29.9 1010.8
03 02:53 SE 5 10.00 Fair CLR 77 69.1 77% 79 29.91 1011.1
03 01:53 SE 9 10.00 Fair CLR 80.1 70 71% 83 29.92 1011.4
03 00:53 SE 12 10.00 Fair CLR 81 69.1 97 81 67% 84 29.92 1011.5
02 23:53 SE 9 10.00 Fair CLR 82.9 69.1 63% 87 29.91 1011.2
02 22:53 SE 12 10.00 Fair CLR 84.9 68 57% 88 29.91 1011.3
02 21:53 SE 8 10.00 Fair CLR 87.1 64.9 48% 89 29.9 1010.9
02 20:53 E 6 10.00 Fair CLR 90 64 42% 91 29.88 1010.2
02 19:53 E 9 10.00 Fair CLR 93 64 38% 95 29.87 1009.7
02 18:53 E 10 10.00 Fair CLR 97 64 102 97 34% 99 29.86 1009.5
02 17:53 E 13 10.00 Fair CLR 100 63 30% 102 29.86 1009.3
02 16:53 E 14 G 18 10.00 Fair CLR 100.9 63 29% 103 29.86 1009.4
02 15:53 E 12 10.00 Mostly Cloudy BKN080 100 64 31% 103 29.88 1010.0
02 14:53 E 12 G 18 10.00 A Few Clouds FEW075 99 64 32% 102 29.9 1010.8
02 13:53 Calm 10.00 Mostly Cloudy BKN070 99 66 34% 103 29.93 1011.9
02 12:53 S 7 10.00 Partly Cloudy SCT065 SCT080 97 66 98.1 73.9 36% 101 29.96 1013.0
02 10:53 Calm 10.00 Fair CLR 91.9 69.1 47% 97 30 1014.3
02 09:53 SE 6 10.00 Fair CLR 89.1 69.1 52% 94 30 1014.3
02 08:53 SE 8 10.00 Fair CLR 82 69.1 65% 85 30 1014.2
02 07:53 SE 7 10.00 Fair CLR 77 69.1 77% 79 29.99 1014.1
02 06:53 Calm 10.00 Fair CLR 75 68 81 73.9 79% 76 29.99 1013.8
02 05:53 SE 6 10.00 Fair CLR 75.9 68 77% 77 29.98 1013.4
02 04:53 SE 6 10.00 Fair CLR 77 68 74% 79 29.97 1013.3
02 03:53 SE 6 10.00 Fair CLR 78.1 68 71% 80 29.98 1013.4
02 02:53 SE 8 10.00 Fair CLR 80.1 68 67% 83 29.98 1013.5
02 01:53 SE 9 10.00 Fair CLR 80.1 66 62% 82 29.99 1013.8
02 00:53 SE 7 10.00 Fair CLR 82 64.9 97 82 56% 84 29.97 1013.2
01 23:53 SE 6 10.00 Fair CLR 82.9 64.9 55% 85 29.97 1013.0
01 22:53 SE 6 10.00 Fair CLR 82.9 64 53% 84 29.96 1012.9
01 21:53 SE 6 10.00 Fair CLR 86 64 48% 87 29.95 1012.4
01 20:53 SE 5 10.00 Fair CLR 88 64 45% 89 29.92 1011.6
01 19:53 E 9 10.00 Fair CLR 93 64 38% 95 29.9 1011.1
01 18:53 E 14 10.00 Fair CLR 97 63 100.9 95 33% 99 29.91 1011.3
01 17:53 E 15 G 24 10.00 Fair CLR 99 62.1 30% 100 29.91 1011.3
01 16:53 SE 14 G 23 10.00 A Few Clouds FEW085 100.9 59 25% 101 29.92 1011.4
01 15:53 SE 12 G 20 10.00 Partly Cloudy FEW080 SCT095 100 63 30% 102 29.93 1011.9
01 14:53 Vrbl 5 G 17 10.00 Fair CLR 99 62.1 30% 100 29.95 1012.6
01 13:53 Calm 0.00 A Few Clouds FEW100 98.1 63 32% 100 29.98 1013.5
01 12:53 Calm 10.00 A Few Clouds FEW065 FEW100 FEW110 96.1 64.9 97 72 36% 99 30.01 1014.5
01 11:53 Calm 10.00 Fair CLR 95 66 39% 98 30.03 1015.2
01 10:53 S 9 10.00 Fair CLR 91.9 66 43% 95 30.04 1015.4
Date Time (cdt) Wind (mph) Vis. (mi.) Weather Sky Cond. Air Dwpt Max. Min. Relative Humidity Wind Chill (°F) Heat Index (°F) altimeter (in) sea level (mb) 1 hr 3 hr 6 hr
6 hour
Temperature (ºF) Pressure Precipitation (in)